Time;durP1;ratioP1;P1;durP2;ratioP2;P2;SDS_P1;SDS_P2;PMS_P1;PMS_P2;Temp;Humidity;BMP_temperature;BMP_pressure;BME280_temperature;BME280_humidity;BME280_pressure;Samples;Min_cycle;Max_cycle;Signal;HPM_P1;HPM_P2
2023/05/02 17:47:50;;;;;;;6.65;3.60;;;22.40;57.30;;;;;;6367001;27;20426;-72
2023/05/02 17:50:54;;;;;;;6.65;4.20;;;21.80;59.20;;;;;;6341127;28;20143;-72
2023/05/02 17:53:56;;;;;;;6.50;3.78;;;21.60;58.50;;;;;;6340486;28;20059;-73
2023/05/02 17:56:57;;;;;;;7.70;3.53;;;21.50;58.80;;;;;;6351154;28;20124;-72
2023/05/02 17:59:59;;;;;;;7.68;3.50;;;21.40;59.00;;;;;;6338752;28;20771;-72
2023/05/02 18:03:03;;;;;;;5.97;3.35;;;21.40;58.90;;;;;;6366396;28;20136;-73
2023/05/02 18:06:05;;;;;;;;;;;21.30;56.20;;;;;;6346693;28;20059;-76
2023/05/02 18:09:07;;;;;;;5.73;3.20;;;21.30;58.00;;;;;;6347576;28;19931;-76
2023/05/02 18:12:09;;;;;;;5.73;2.70;;;21.00;57.70;;;;;;6346884;27;20302;-76
2023/05/02 18:15:11;;;;;;;7.72;3.10;;;21.10;58.10;;;;;;6348827;27;20051;-75
2023/05/02 18:18:14;;;;;;;6.53;3.47;;;20.90;57.70;;;;;;6355675;27;20071;-75
2023/05/02 18:21:21;;;;;;;4.80;2.67;;;20.70;59.10;;;;;;6340796;28;20051;-75
2023/05/02 18:24:23;;;;;;;6.13;3.13;;;20.40;60.10;;;;;;6341706;28;20190;-76
2023/05/02 18:27:25;;;;;;;5.22;2.80;;;20.10;60.00;;;;;;6359411;27;20055;-74
2023/05/02 18:30:27;;;;;;;5.40;3.20;;;20.20;58.50;;;;;;6363613;27;20058;-74
2023/05/02 18:33:30;;;;;;;6.22;3.47;;;20.10;59.20;;;;;;6362888;28;20055;-76
2023/05/02 18:36:32;;;;;;;5.70;3.22;;;19.80;59.80;;;;;;6341971;28;20048;-73
2023/05/02 18:39:34;;;;;;;7.28;3.10;;;19.70;61.40;;;;;;6342148;27;20047;-74
2023/05/02 18:42:36;;;;;;;6.07;3.30;;;19.40;61.80;;;;;;6365862;27;20164;-74
2023/05/02 18:45:38;;;;;;;5.75;3.00;;;19.20;62.50;;;;;;6326703;28;20067;-73
2023/05/02 18:48:42;;;;;;;5.93;3.08;;;19.10;64.30;;;;;;6334211;28;20043;-73
2023/05/02 18:51:44;;;;;;;5.93;3.50;;;19.00;64.10;;;;;;6361823;28;20050;-74
2023/05/02 18:54:45;;;;;;;5.15;3.10;;;18.90;65.30;;;;;;6358417;28;20048;-74
2023/05/02 18:57:47;;;;;;;6.25;3.00;;;18.60;63.00;;;;;;6323219;28;20044;-73
2023/05/02 19:00:49;;;;;;;6.65;3.40;;;18.60;64.70;;;;;;6298483;28;20055;-74
2023/05/02 19:03:54;;;;;;;5.65;3.20;;;18.50;64.30;;;;;;6344345;28;20073;-74
2023/05/02 19:06:55;;;;;;;6.43;3.42;;;18.20;63.80;;;;;;6343310;28;20048;-74
2023/05/02 19:09:57;;;;;;;5.03;2.95;;;18.00;65.00;;;;;;6347997;28;20492;-74
2023/05/02 19:12:59;;;;;;;6.53;3.30;;;17.90;65.30;;;;;;6341707;28;20070;-74
2023/05/02 19:16:01;;;;;;;6.40;3.28;;;17.90;65.40;;;;;;6322574;28;20062;-79
2023/05/02 19:19:04;;;;;;;6.90;3.50;;;17.90;65.50;;;;;;6327188;28;20052;-78
2023/05/02 19:22:06;;;;;;;6.88;3.40;;;17.90;65.60;;;;;;6321491;28;20048;-78
2023/05/02 19:25:11;;;;;;;6.28;3.58;;;17.70;65.40;;;;;;6297485;28;20055;-75
2023/05/02 19:28:14;;;;;;;5.55;3.40;;;17.60;66.60;;;;;;6331755;28;20055;-80
2023/05/02 19:31:18;;;;;;;5.97;3.57;;;17.60;67.90;;;;;;6317341;28;20048;-76
2023/05/02 19:34:21;;;;;;;7.97;3.60;;;17.50;67.50;;;;;;6319660;28;20310;-77
2023/05/02 19:37:23;;;;;;;6.07;3.80;;;17.40;68.40;;;;;;6324208;28;20343;-78
2023/05/02 19:40:26;;;;;;;7.57;3.55;;;17.30;68.60;;;;;;6333155;28;20062;-78
2023/05/02 19:43:28;;;;;;;7.57;3.83;;;17.20;69.80;;;;;;6340611;28;20051;-76
2023/05/02 19:46:31;;;;;;;7.78;4.28;;;17.00;69.50;;;;;;6327377;28;20810;-79
2023/05/02 19:49:34;;;;;;;6.78;3.90;;;17.10;69.70;;;;;;6327743;28;20040;-76
2023/05/02 19:52:37;;;;;;;7.00;4.00;;;17.00;70.80;;;;;;6346554;28;20051;-77
2023/05/02 19:55:39;;;;;;;7.35;4.07;;;16.80;73.40;;;;;;6346933;28;20059;-76
2023/05/02 19:58:41;;;;;;;7.43;4.22;;;16.80;74.40;;;;;;6319221;28;20059;-79
2023/05/02 20:01:43;;;;;;;7.40;4.20;;;16.80;74.80;;;;;;6323215;28;20048;-79
2023/05/02 20:04:46;;;;;;;7.43;4.50;;;16.80;75.30;;;;;;6318831;28;20039;-78
2023/05/02 20:07:48;;;;;;;8.38;3.60;;;16.70;76.90;;;;;;6330932;28;20056;-79
2023/05/02 20:10:50;;;;;;;7.53;4.00;;;16.70;78.30;;;;;;6313101;28;20484;-79
2023/05/02 20:13:53;;;;;;;6.22;3.75;;;16.60;79.00;;;;;;6341250;28;20055;-77
2023/05/02 20:16:58;;;;;;;7.35;3.97;;;16.50;78.70;;;;;;6329798;28;20048;-78
2023/05/02 20:20:06;;;;;;;8.40;4.38;;;16.40;79.00;;;;;;6338504;28;20201;-77
2023/05/02 20:23:08;;;;;;;6.63;4.10;;;16.40;79.10;;;;;;6343639;28;20047;-77
2023/05/02 20:26:10;;;;;;;8.75;4.57;;;16.30;79.80;;;;;;6345688;28;20492;-78
2023/05/02 20:29:12;;;;;;;7.53;4.45;;;16.30;80.30;;;;;;6340490;28;20416;-77
2023/05/02 20:32:15;;;;;;;6.82;4.07;;;16.20;81.10;;;;;;6331090;28;20044;-77
2023/05/02 20:35:18;;;;;;;6.47;3.80;;;16.10;81.50;;;;;;6321057;28;20134;-77
2023/05/02 20:38:22;;;;;;;7.50;4.47;;;16.10;82.00;;;;;;6319672;28;20054;-77
2023/05/02 20:41:25;;;;;;;6.85;4.07;;;16.10;82.20;;;;;;6319790;28;20491;-78
2023/05/02 20:44:28;;;;;;;10.77;4.93;;;16.00;82.60;;;;;;6320178;28;20048;-78
2023/05/02 20:47:32;;;;;;;8.52;4.50;;;15.90;83.30;;;;;;6320106;28;20469;-78
2023/05/02 20:50:35;;;;;;;6.45;3.67;;;15.90;83.90;;;;;;6320079;28;20549;-78
2023/05/02 20:53:37;;;;;;;7.60;3.92;;;15.80;84.80;;;;;;6319254;28;20055;-78
2023/05/02 20:56:39;;;;;;;7.88;4.10;;;15.80;85.60;;;;;;6320143;28;20044;-78
2023/05/02 20:59:42;;;;;;;7.50;3.75;;;15.60;86.90;;;;;;6318418;28;20048;-77
2023/05/02 21:02:43;;;;;;;10.07;4.68;;;15.60;86.70;;;;;;6318773;28;20052;-78
2023/05/02 21:05:52;;;;;;;8.23;4.70;;;15.60;87.10;;;;;;6319129;28;20040;-77
2023/05/02 21:08:55;;;;;;;9.05;4.80;;;15.50;87.40;;;;;;6320042;28;20113;-78
2023/05/02 21:11:57;;;;;;;10.82;4.80;;;15.40;88.30;;;;;;6318924;28;20139;-78
2023/05/02 21:14:59;;;;;;;8.05;4.50;;;15.30;88.40;;;;;;6319660;28;20048;-78
2023/05/02 21:18:01;;;;;;;8.70;4.18;;;15.20;89.60;;;;;;6319814;28;20052;-78
2023/05/02 21:21:04;;;;;;;8.50;4.53;;;15.10;90.30;;;;;;6319754;28;20047;-77
2023/05/02 21:24:07;;;;;;;8.23;4.05;;;15.10;90.40;;;;;;6318569;28;20711;-78
2023/05/02 21:27:09;;;;;;;8.52;5.00;;;14.90;90.20;;;;;;6336635;28;20051;-78
2023/05/02 21:30:13;;;;;;;7.40;4.35;;;14.90;90.80;;;;;;6319714;28;20055;-78
2023/05/02 21:33:16;;;;;;;8.52;4.63;;;14.80;90.50;;;;;;6319992;28;20055;-78
2023/05/02 21:36:19;;;;;;;8.55;4.75;;;14.80;90.60;;;;;;6339634;28;20135;-78
2023/05/02 21:39:21;;;;;;;8.73;5.18;;;14.80;90.60;;;;;;6323498;28;20056;-78
2023/05/02 21:42:23;;;;;;;8.27;4.55;;;14.80;90.60;;;;;;6325949;28;20047;-77
2023/05/02 21:45:25;;;;;;;7.72;4.60;;;14.70;90.90;;;;;;6344460;28;20066;-78
2023/05/02 21:48:27;;;;;;;8.32;4.85;;;14.70;91.20;;;;;;6336230;28;20052;-78
2023/05/02 21:51:32;;;;;;;8.65;4.82;;;14.70;91.20;;;;;;6328274;28;20702;-79
2023/05/02 21:54:34;;;;;;;7.57;4.63;;;14.60;91.40;;;;;;6318492;28;20090;-78
2023/05/02 21:57:36;;;;;;;9.88;4.95;;;14.50;92.00;;;;;;6322067;28;20044;-79
